Springfield, MA

2:15 AM EDT on August 22, 2014 (GMT -0400)
Brightwood | Change Station
CLOSE
Current Station
Personal Weather Station
Location: Springfield, MA
Elevation: 72 ft
Nearby Weather Stations

Elev 72 ft 42.12 °N, 72.62 °W | Updated 45 seconds ago

Light Rain
Light Rain
66.3 °F
Feels Like 66.3 °F
N
0.0
Wind Variable Wind from SE
Gusts 0.0 mph

Today
High -- | Low -- °F
--% Chance of Precip.
Yesterday
High -- | Low -- °F
Precip. -- in
6:05 AM 7:40 PM
Waning Crescent, 10% visible
Pressure 30.08 in
Visibility 10.0 miles
Clouds Scattered Clouds 2100 ft
Overcast 2800 ft
Dew Point 64 °F
Humidity 94%
Rainfall 0.27 in
Snow Depth Not available.
UV 0 out of 12
Pollen 8.00 out of 12
Ozone Good
PM2.5 Good
Flu Activity Not available.
METAR KCEF 220558Z AUTO 17003KT 10SM -RA SCT021 OVC028 19/17 A3006 RMK AO2 RAB0547DZB0535E0547 SLP184 P0001 60001 T01870174 10213 20186 56001

More Conditions Fewer Conditions

Pressure 30.08 in
Visibility 10.0 miles
Clouds Scattered Clouds 2100 ft
Overcast 2800 ft
Dew Point 64 °F
Humidity 94%
Rainfall 0.27 in
Snow Depth Not available.
UV 0 out of 12
Pollen 8.00 out of 12
Ozone Good
PM2.5 Good
Flu Activity Not available.
METAR KCEF 220558Z AUTO 17003KT 10SM -RA SCT021 OVC028 19/17 A3006 RMK AO2 RAB0547DZB0535E0547 SLP184 P0001 60001 T01870174 10213 20186 56001

More Conditions Fewer Conditions

10-Day Weather Forecast

Almanac

Astronomy

Aug. 22, 2014 Rise Set
Actual Time 6:05 AM EDT 7:40 PM EDT
Civil Twilight 5:35 AM EDT 8:09 PM EDT
Nautical Twilight 5:00 AM EDT 8:45 PM EDT
Astronomical Twilight 4:21 AM EDT 9:23 PM EDT
Moon 3:24 AM EDT 5:47 PM EDT
Length of Visible Light 14h 33m
Length of Day
13h 35m
Tomorrow will be 2m 37s shorter.
Waning Crescent, 10% of the Moon is Illuminated
Today
Waning Crescent
Aug 25
New
Sep 2
First Quarter
Sep 8
Full
Sep 15
Last Quarter

Today's Extremes

State Highs State Lows

Community

WunderPhotos

Upload Photos

1,746,131 photos uploaded!

Nearby

Air Quality

  Air Quality AQ Index Pollutant
Yesterday Good
PM2.5
Yesterday Good
OZONE
Current Good
PM2.5
Current Good
OZONE
Friday Good
PM2.5
Friday Good
OZONE

Snow Depth

Station Depth Elevation
No new snow has been reported.

Earthquake Activity

City Distance Mag. Time & Date
No recent earthquake activity has been reported nearby.
Minimum magnitude displayed is 2.5.

Coastal Water Temperatures

Place Temperature
No Stations Reporting

Nearby Weather Stations